sensor_id;sensor_type;location;lat;lon;timestamp;P1;durP1;ratioP1;P2;durP2;ratioP2
18224;SDS011;9237;48.590;8.854;2023-10-13T00:00:28;0.70;;;0.70;;
18224;SDS011;9237;48.590;8.854;2023-10-13T00:03:00;0.70;;;0.70;;
18224;SDS011;9237;48.590;8.854;2023-10-13T00:05:27;0.70;;;0.70;;
18224;SDS011;9237;48.590;8.854;2023-10-13T00:07:55;0.70;;;0.70;;
18224;SDS011;9237;48.590;8.854;2023-10-13T00:10:27;0.70;;;0.70;;
18224;SDS011;9237;48.590;8.854;2023-10-13T00:12:54;0.70;;;0.70;;
18224;SDS011;9237;48.590;8.854;2023-10-13T00:15:30;0.60;;;0.60;;
18224;SDS011;9237;48.590;8.854;2023-10-13T00:18:03;0.60;;;0.60;;
18224;SDS011;9237;48.590;8.854;2023-10-13T00:20:37;0.60;;;0.60;;
18224;SDS011;9237;48.590;8.854;2023-10-13T00:23:04;0.60;;;0.60;;
18224;SDS011;9237;48.590;8.854;2023-10-13T00:25:33;0.60;;;0.60;;
18224;SDS011;9237;48.590;8.854;2023-10-13T00:28:08;0.50;;;0.50;;
18224;SDS011;9237;48.590;8.854;2023-10-13T00:30:35;0.60;;;0.60;;
18224;SDS011;9237;48.590;8.854;2023-10-13T00:33:03;0.70;;;0.70;;
18224;SDS011;9237;48.590;8.854;2023-10-13T00:35:30;0.70;;;0.70;;
18224;SDS011;9237;48.590;8.854;2023-10-13T00:38:02;0.70;;;0.70;;
18224;SDS011;9237;48.590;8.854;2023-10-13T00:40:39;0.70;;;0.70;;
18224;SDS011;9237;48.590;8.854;2023-10-13T00:43:16;0.70;;;0.70;;
18224;SDS011;9237;48.590;8.854;2023-10-13T00:46:00;0.70;;;0.70;;
18224;SDS011;9237;48.590;8.854;2023-10-13T00:48:34;0.70;;;0.70;;
18224;SDS011;9237;48.590;8.854;2023-10-13T00:51:07;0.70;;;0.70;;
18224;SDS011;9237;48.590;8.854;2023-10-13T00:53:43;0.60;;;0.60;;
18224;SDS011;9237;48.590;8.854;2023-10-13T00:56:13;0.70;;;0.70;;
18224;SDS011;9237;48.590;8.854;2023-10-13T00:58:47;0.70;;;0.70;;
18224;SDS011;9237;48.590;8.854;2023-10-13T01:01:16;0.70;;;0.70;;
18224;SDS011;9237;48.590;8.854;2023-10-13T01:03:47;0.70;;;0.70;;
18224;SDS011;9237;48.590;8.854;2023-10-13T01:06:17;0.70;;;0.70;;
18224;SDS011;9237;48.590;8.854;2023-10-13T01:08:44;0.70;;;0.70;;
18224;SDS011;9237;48.590;8.854;2023-10-13T01:11:17;0.70;;;0.70;;
18224;SDS011;9237;48.590;8.854;2023-10-13T01:13:44;0.70;;;0.70;;
18224;SDS011;9237;48.590;8.854;2023-10-13T01:16:16;0.70;;;0.70;;
18224;SDS011;9237;48.590;8.854;2023-10-13T01:18:42;0.60;;;0.60;;
18224;SDS011;9237;48.590;8.854;2023-10-13T01:21:14;0.70;;;0.70;;
18224;SDS011;9237;48.590;8.854;2023-10-13T01:23:43;0.70;;;0.70;;
18224;SDS011;9237;48.590;8.854;2023-10-13T01:26:11;0.70;;;0.70;;
18224;SDS011;9237;48.590;8.854;2023-10-13T01:28:41;0.70;;;0.70;;
18224;SDS011;9237;48.590;8.854;2023-10-13T01:31:15;0.70;;;0.70;;
18224;SDS011;9237;48.590;8.854;2023-10-13T01:33:54;0.70;;;0.70;;
18224;SDS011;9237;48.590;8.854;2023-10-13T01:36:23;0.70;;;0.70;;
18224;SDS011;9237;48.590;8.854;2023-10-13T01:38:52;0.70;;;0.70;;
18224;SDS011;9237;48.590;8.854;2023-10-13T01:41:19;0.70;;;0.70;;
18224;SDS011;9237;48.590;8.854;2023-10-13T01:43:46;0.70;;;0.70;;
18224;SDS011;9237;48.590;8.854;2023-10-13T01:46:13;0.70;;;0.70;;
18224;SDS011;9237;48.590;8.854;2023-10-13T01:48:44;0.70;;;0.70;;
18224;SDS011;9237;48.590;8.854;2023-10-13T01:51:11;0.67;;;0.67;;
18224;SDS011;9237;48.590;8.854;2023-10-13T01:53:38;0.70;;;0.70;;
18224;SDS011;9237;48.590;8.854;2023-10-13T01:56:06;0.70;;;0.70;;
18224;SDS011;9237;48.590;8.854;2023-10-13T01:58:37;0.70;;;0.70;;
18224;SDS011;9237;48.590;8.854;2023-10-13T02:01:06;0.80;;;0.80;;
18224;SDS011;9237;48.590;8.854;2023-10-13T02:03:34;0.70;;;0.70;;
18224;SDS011;9237;48.590;8.854;2023-10-13T02:06:01;0.80;;;0.80;;
18224;SDS011;9237;48.590;8.854;2023-10-13T02:08:30;0.80;;;0.80;;
18224;SDS011;9237;48.590;8.854;2023-10-13T02:10:56;0.70;;;0.70;;
18224;SDS011;9237;48.590;8.854;2023-10-13T02:13:27;0.70;;;0.70;;
18224;SDS011;9237;48.590;8.854;2023-10-13T02:15:55;0.70;;;0.70;;
18224;SDS011;9237;48.590;8.854;2023-10-13T02:18:28;0.70;;;0.70;;
18224;SDS011;9237;48.590;8.854;2023-10-13T02:21:01;0.70;;;0.70;;
18224;SDS011;9237;48.590;8.854;2023-10-13T02:23:30;0.70;;;0.70;;
18224;SDS011;9237;48.590;8.854;2023-10-13T02:25:56;0.70;;;0.70;;
18224;SDS011;9237;48.590;8.854;2023-10-13T02:28:30;0.70;;;0.70;;
18224;SDS011;9237;48.590;8.854;2023-10-13T02:31:01;0.70;;;0.70;;
18224;SDS011;9237;48.590;8.854;2023-10-13T02:33:28;0.70;;;0.70;;
18224;SDS011;9237;48.590;8.854;2023-10-13T02:35:55;0.70;;;0.70;;
18224;SDS011;9237;48.590;8.854;2023-10-13T02:38:22;0.70;;;0.70;;
18224;SDS011;9237;48.590;8.854;2023-10-13T02:40:53;0.80;;;0.80;;
18224;SDS011;9237;48.590;8.854;2023-10-13T02:43:21;0.80;;;0.80;;
18224;SDS011;9237;48.590;8.854;2023-10-13T02:45:55;0.70;;;0.70;;
18224;SDS011;9237;48.590;8.854;2023-10-13T02:48:24;0.70;;;0.70;;
18224;SDS011;9237;48.590;8.854;2023-10-13T02:50:59;0.80;;;0.80;;
18224;SDS011;9237;48.590;8.854;2023-10-13T02:53:27;0.70;;;0.70;;
18224;SDS011;9237;48.590;8.854;2023-10-13T02:55:55;0.70;;;0.70;;
18224;SDS011;9237;48.590;8.854;2023-10-13T02:58:30;0.80;;;0.80;;
18224;SDS011;9237;48.590;8.854;2023-10-13T03:01:06;0.70;;;0.70;;
18224;SDS011;9237;48.590;8.854;2023-10-13T03:03:42;0.80;;;0.80;;
18224;SDS011;9237;48.590;8.854;2023-10-13T03:06:12;0.70;;;0.70;;
18224;SDS011;9237;48.590;8.854;2023-10-13T03:08:39;0.80;;;0.80;;
18224;SDS011;9237;48.590;8.854;2023-10-13T03:11:08;0.70;;;0.70;;
18224;SDS011;9237;48.590;8.854;2023-10-13T03:13:34;0.70;;;0.70;;
18224;SDS011;9237;48.590;8.854;2023-10-13T03:16:02;0.80;;;0.80;;
18224;SDS011;9237;48.590;8.854;2023-10-13T03:18:40;0.70;;;0.70;;
18224;SDS011;9237;48.590;8.854;2023-10-13T03:21:16;0.70;;;0.70;;
18224;SDS011;9237;48.590;8.854;2023-10-13T03:23:53;0.70;;;0.70;;
18224;SDS011;9237;48.590;8.854;2023-10-13T03:26:20;0.70;;;0.70;;
18224;SDS011;9237;48.590;8.854;2023-10-13T03:28:47;0.80;;;0.80;;
18224;SDS011;9237;48.590;8.854;2023-10-13T03:31:19;0.80;;;0.80;;
18224;SDS011;9237;48.590;8.854;2023-10-13T03:33:53;0.70;;;0.70;;
18224;SDS011;9237;48.590;8.854;2023-10-13T03:36:24;0.70;;;0.70;;
18224;SDS011;9237;48.590;8.854;2023-10-13T03:39:08;0.70;;;0.70;;
18224;SDS011;9237;48.590;8.854;2023-10-13T03:41:36;0.70;;;0.70;;
18224;SDS011;9237;48.590;8.854;2023-10-13T03:44:05;0.70;;;0.70;;
18224;SDS011;9237;48.590;8.854;2023-10-13T03:46:41;0.70;;;0.70;;
18224;SDS011;9237;48.590;8.854;2023-10-13T03:49:10;0.80;;;0.80;;
18224;SDS011;9237;48.590;8.854;2023-10-13T03:51:38;0.70;;;0.70;;
18224;SDS011;9237;48.590;8.854;2023-10-13T03:54:05;0.70;;;0.70;;
18224;SDS011;9237;48.590;8.854;2023-10-13T03:56:33;0.70;;;0.70;;
18224;SDS011;9237;48.590;8.854;2023-10-13T03:59:05;0.70;;;0.70;;
18224;SDS011;9237;48.590;8.854;2023-10-13T04:01:34;0.70;;;0.70;;
18224;SDS011;9237;48.590;8.854;2023-10-13T04:04:12;0.70;;;0.70;;
18224;SDS011;9237;48.590;8.854;2023-10-13T04:06:40;0.70;;;0.70;;
18224;SDS011;9237;48.590;8.854;2023-10-13T04:09:38;0.80;;;0.80;;
18224;SDS011;9237;48.590;8.854;2023-10-13T04:12:40;0.70;;;0.70;;
18224;SDS011;9237;48.590;8.854;2023-10-13T04:15:24;0.70;;;0.70;;
18224;SDS011;9237;48.590;8.854;2023-10-13T04:18:02;0.80;;;0.80;;
18224;SDS011;9237;48.590;8.854;2023-10-13T04:20:40;0.80;;;0.80;;
18224;SDS011;9237;48.590;8.854;2023-10-13T04:23:11;0.70;;;0.70;;
18224;SDS011;9237;48.590;8.854;2023-10-13T04:25:47;0.70;;;0.70;;
18224;SDS011;9237;48.590;8.854;2023-10-13T04:28:46;0.60;;;0.60;;
18224;SDS011;9237;48.590;8.854;2023-10-13T04:31:18;0.77;;;0.77;;
18224;SDS011;9237;48.590;8.854;2023-10-13T04:34:11;0.80;;;0.80;;
18224;SDS011;9237;48.590;8.854;2023-10-13T04:36:46;0.70;;;0.70;;
18224;SDS011;9237;48.590;8.854;2023-10-13T04:39:20;0.70;;;0.70;;
18224;SDS011;9237;48.590;8.854;2023-10-13T04:41:54;0.60;;;0.60;;
18224;SDS011;9237;48.590;8.854;2023-10-13T04:44:36;0.70;;;0.70;;
18224;SDS011;9237;48.590;8.854;2023-10-13T04:47:13;0.70;;;0.70;;
18224;SDS011;9237;48.590;8.854;2023-10-13T04:49:46;0.70;;;0.70;;
18224;SDS011;9237;48.590;8.854;2023-10-13T04:52:18;0.60;;;0.60;;
18224;SDS011;9237;48.590;8.854;2023-10-13T04:54:59;0.70;;;0.70;;
18224;SDS011;9237;48.590;8.854;2023-10-13T04:57:42;0.70;;;0.70;;
18224;SDS011;9237;48.590;8.854;2023-10-13T05:00:12;0.70;;;0.70;;
18224;SDS011;9237;48.590;8.854;2023-10-13T05:02:57;0.70;;;0.70;;
18224;SDS011;9237;48.590;8.854;2023-10-13T05:05:42;0.80;;;0.80;;
18224;SDS011;9237;48.590;8.854;2023-10-13T05:08:37;0.70;;;0.70;;
18224;SDS011;9237;48.590;8.854;2023-10-13T05:11:21;0.70;;;0.70;;
18224;SDS011;9237;48.590;8.854;2023-10-13T05:14:05;0.80;;;0.80;;
18224;SDS011;9237;48.590;8.854;2023-10-13T05:16:49;0.80;;;0.80;;
18224;SDS011;9237;48.590;8.854;2023-10-13T05:19:33;0.70;;;0.70;;
18224;SDS011;9237;48.590;8.854;2023-10-13T05:22:17;0.70;;;0.70;;
18224;SDS011;9237;48.590;8.854;2023-10-13T05:25:03;0.90;;;0.90;;
18224;SDS011;9237;48.590;8.854;2023-10-13T05:27:47;0.80;;;0.80;;
18224;SDS011;9237;48.590;8.854;2023-10-13T05:30:32;0.70;;;0.70;;
18224;SDS011;9237;48.590;8.854;2023-10-13T05:33:16;0.80;;;0.80;;
18224;SDS011;9237;48.590;8.854;2023-10-13T05:36:00;0.80;;;0.80;;
18224;SDS011;9237;48.590;8.854;2023-10-13T05:38:44;0.70;;;0.70;;
18224;SDS011;9237;48.590;8.854;2023-10-13T05:41:30;0.70;;;0.70;;
18224;SDS011;9237;48.590;8.854;2023-10-13T05:44:14;0.80;;;0.80;;
18224;SDS011;9237;48.590;8.854;2023-10-13T05:47:02;0.70;;;0.70;;
18224;SDS011;9237;48.590;8.854;2023-10-13T05:49:43;0.80;;;0.80;;
18224;SDS011;9237;48.590;8.854;2023-10-13T05:52:18;0.70;;;0.70;;
18224;SDS011;9237;48.590;8.854;2023-10-13T05:54:45;0.60;;;0.60;;
18224;SDS011;9237;48.590;8.854;2023-10-13T05:57:31;0.73;;;0.73;;
18224;SDS011;9237;48.590;8.854;2023-10-13T06:00:16;0.70;;;0.70;;
18224;SDS011;9237;48.590;8.854;2023-10-13T06:03:01;0.80;;;0.80;;
18224;SDS011;9237;48.590;8.854;2023-10-13T06:05:45;0.70;;;0.70;;
18224;SDS011;9237;48.590;8.854;2023-10-13T06:08:29;0.80;;;0.80;;
18224;SDS011;9237;48.590;8.854;2023-10-13T06:11:13;0.80;;;0.80;;
18224;SDS011;9237;48.590;8.854;2023-10-13T06:13:59;0.70;;;0.70;;
18224;SDS011;9237;48.590;8.854;2023-10-13T06:16:43;0.70;;;0.70;;
18224;SDS011;9237;48.590;8.854;2023-10-13T06:19:27;0.70;;;0.70;;
18224;SDS011;9237;48.590;8.854;2023-10-13T06:22:11;0.70;;;0.70;;
18224;SDS011;9237;48.590;8.854;2023-10-13T06:24:55;0.70;;;0.70;;
18224;SDS011;9237;48.590;8.854;2023-10-13T06:27:39;0.70;;;0.70;;
18224;SDS011;9237;48.590;8.854;2023-10-13T06:30:25;0.70;;;0.70;;
18224;SDS011;9237;48.590;8.854;2023-10-13T06:32:52;0.70;;;0.70;;
18224;SDS011;9237;48.590;8.854;2023-10-13T06:35:19;0.70;;;0.70;;
18224;SDS011;9237;48.590;8.854;2023-10-13T06:37:48;0.63;;;0.63;;
18224;SDS011;9237;48.590;8.854;2023-10-13T06:40:15;0.70;;;0.70;;
18224;SDS011;9237;48.590;8.854;2023-10-13T06:42:58;0.70;;;0.70;;
18224;SDS011;9237;48.590;8.854;2023-10-13T06:45:38;0.70;;;0.70;;
18224;SDS011;9237;48.590;8.854;2023-10-13T06:48:06;0.60;;;0.60;;
18224;SDS011;9237;48.590;8.854;2023-10-13T06:50:36;0.60;;;0.60;;
18224;SDS011;9237;48.590;8.854;2023-10-13T06:53:06;0.60;;;0.60;;
18224;SDS011;9237;48.590;8.854;2023-10-13T06:55:36;0.60;;;0.60;;
18224;SDS011;9237;48.590;8.854;2023-10-13T06:58:05;0.60;;;0.60;;
18224;SDS011;9237;48.590;8.854;2023-10-13T07:00:32;0.70;;;0.70;;
18224;SDS011;9237;48.590;8.854;2023-10-13T07:03:01;0.60;;;0.60;;
18224;SDS011;9237;48.590;8.854;2023-10-13T07:05:33;0.60;;;0.60;;
18224;SDS011;9237;48.590;8.854;2023-10-13T07:08:03;0.60;;;0.60;;
18224;SDS011;9237;48.590;8.854;2023-10-13T07:10:30;0.60;;;0.60;;
18224;SDS011;9237;48.590;8.854;2023-10-13T07:13:09;0.70;;;0.70;;
18224;SDS011;9237;48.590;8.854;2023-10-13T07:15:38;0.60;;;0.60;;
18224;SDS011;9237;48.590;8.854;2023-10-13T07:18:11;0.60;;;0.60;;
18224;SDS011;9237;48.590;8.854;2023-10-13T07:20:40;0.60;;;0.60;;
18224;SDS011;9237;48.590;8.854;2023-10-13T07:23:10;0.50;;;0.50;;
18224;SDS011;9237;48.590;8.854;2023-10-13T07:25:42;0.50;;;0.50;;
18224;SDS011;9237;48.590;8.854;2023-10-13T07:28:17;0.50;;;0.50;;
18224;SDS011;9237;48.590;8.854;2023-10-13T07:30:43;0.50;;;0.50;;
18224;SDS011;9237;48.590;8.854;2023-10-13T07:33:36;0.52;;;0.52;;
18224;SDS011;9237;48.590;8.854;2023-10-13T07:36:06;0.60;;;0.60;;
18224;SDS011;9237;48.590;8.854;2023-10-13T07:38:53;0.50;;;0.50;;
18224;SDS011;9237;48.590;8.854;2023-10-13T07:41:39;0.50;;;0.50;;
18224;SDS011;9237;48.590;8.854;2023-10-13T07:44:07;0.50;;;0.50;;
18224;SDS011;9237;48.590;8.854;2023-10-13T07:46:38;0.50;;;0.50;;
18224;SDS011;9237;48.590;8.854;2023-10-13T07:49:06;0.50;;;0.50;;
18224;SDS011;9237;48.590;8.854;2023-10-13T07:51:36;0.40;;;0.40;;
18224;SDS011;9237;48.590;8.854;2023-10-13T07:54:09;0.40;;;0.40;;
18224;SDS011;9237;48.590;8.854;2023-10-13T07:56:38;0.40;;;0.40;;
18224;SDS011;9237;48.590;8.854;2023-10-13T07:59:05;0.40;;;0.40;;
18224;SDS011;9237;48.590;8.854;2023-10-13T08:01:34;0.40;;;0.40;;
18224;SDS011;9237;48.590;8.854;2023-10-13T08:04:01;0.40;;;0.40;;
18224;SDS011;9237;48.590;8.854;2023-10-13T08:06:37;0.40;;;0.40;;
18224;SDS011;9237;48.590;8.854;2023-10-13T08:09:06;0.38;;;0.38;;
18224;SDS011;9237;48.590;8.854;2023-10-13T08:11:33;0.35;;;0.35;;
18224;SDS011;9237;48.590;8.854;2023-10-13T08:14:02;0.40;;;0.40;;
18224;SDS011;9237;48.590;8.854;2023-10-13T08:16:37;0.40;;;0.40;;
18224;SDS011;9237;48.590;8.854;2023-10-13T08:19:19;0.40;;;0.40;;
18224;SDS011;9237;48.590;8.854;2023-10-13T08:21:53;0.40;;;0.40;;
18224;SDS011;9237;48.590;8.854;2023-10-13T08:24:24;0.40;;;0.40;;
18224;SDS011;9237;48.590;8.854;2023-10-13T08:26:54;0.40;;;0.40;;
18224;SDS011;9237;48.590;8.854;2023-10-13T08:29:43;0.30;;;0.30;;
18224;SDS011;9237;48.590;8.854;2023-10-13T08:32:31;0.30;;;0.30;;
18224;SDS011;9237;48.590;8.854;2023-10-13T08:35:19;0.40;;;0.40;;
18224;SDS011;9237;48.590;8.854;2023-10-13T08:38:01;0.40;;;0.40;;
18224;SDS011;9237;48.590;8.854;2023-10-13T08:40:38;0.40;;;0.40;;
18224;SDS011;9237;48.590;8.854;2023-10-13T08:43:41;0.40;;;0.40;;
18224;SDS011;9237;48.590;8.854;2023-10-13T08:46:10;0.40;;;0.40;;
18224;SDS011;9237;48.590;8.854;2023-10-13T08:48:51;0.40;;;0.40;;
18224;SDS011;9237;48.590;8.854;2023-10-13T08:51:29;0.30;;;0.30;;
18224;SDS011;9237;48.590;8.854;2023-10-13T08:54:16;0.35;;;0.35;;
18224;SDS011;9237;48.590;8.854;2023-10-13T08:56:58;0.35;;;0.35;;
18224;SDS011;9237;48.590;8.854;2023-10-13T08:59:44;0.30;;;0.30;;
18224;SDS011;9237;48.590;8.854;2023-10-13T09:02:18;0.30;;;0.30;;
18224;SDS011;9237;48.590;8.854;2023-10-13T09:04:47;0.40;;;0.40;;
18224;SDS011;9237;48.590;8.854;2023-10-13T09:07:24;0.40;;;0.40;;
18224;SDS011;9237;48.590;8.854;2023-10-13T09:09:52;0.40;;;0.40;;
18224;SDS011;9237;48.590;8.854;2023-10-13T09:12:25;0.40;;;0.40;;
18224;SDS011;9237;48.590;8.854;2023-10-13T09:15:02;0.40;;;0.40;;
18224;SDS011;9237;48.590;8.854;2023-10-13T09:17:32;0.30;;;0.30;;
18224;SDS011;9237;48.590;8.854;2023-10-13T09:20:12;0.30;;;0.30;;
18224;SDS011;9237;48.590;8.854;2023-10-13T09:22:56;0.30;;;0.30;;
18224;SDS011;9237;48.590;8.854;2023-10-13T09:25:35;0.30;;;0.30;;
18224;SDS011;9237;48.590;8.854;2023-10-13T09:28:02;0.30;;;0.30;;
18224;SDS011;9237;48.590;8.854;2023-10-13T09:30:42;0.38;;;0.38;;
18224;SDS011;9237;48.590;8.854;2023-10-13T09:33:08;0.30;;;0.30;;
18224;SDS011;9237;48.590;8.854;2023-10-13T09:35:40;0.30;;;0.30;;
18224;SDS011;9237;48.590;8.854;2023-10-13T09:38:10;0.32;;;0.32;;
18224;SDS011;9237;48.590;8.854;2023-10-13T09:40:39;0.40;;;0.40;;
18224;SDS011;9237;48.590;8.854;2023-10-13T09:43:11;0.40;;;0.40;;
18224;SDS011;9237;48.590;8.854;2023-10-13T09:45:43;0.40;;;0.40;;
18224;SDS011;9237;48.590;8.854;2023-10-13T09:48:28;0.40;;;0.40;;
18224;SDS011;9237;48.590;8.854;2023-10-13T09:50:58;0.40;;;0.40;;
18224;SDS011;9237;48.590;8.854;2023-10-13T09:53:27;0.40;;;0.40;;
18224;SDS011;9237;48.590;8.854;2023-10-13T09:55:56;0.40;;;0.40;;
18224;SDS011;9237;48.590;8.854;2023-10-13T09:58:38;0.40;;;0.40;;
18224;SDS011;9237;48.590;8.854;2023-10-13T10:01:12;0.40;;;0.40;;
18224;SDS011;9237;48.590;8.854;2023-10-13T10:03:46;0.40;;;0.40;;
18224;SDS011;9237;48.590;8.854;2023-10-13T10:06:21;0.40;;;0.40;;
18224;SDS011;9237;48.590;8.854;2023-10-13T10:08:53;0.40;;;0.40;;
18224;SDS011;9237;48.590;8.854;2023-10-13T10:14:41;0.40;;;0.40;;
18224;SDS011;9237;48.590;8.854;2023-10-13T10:17:16;0.40;;;0.40;;
18224;SDS011;9237;48.590;8.854;2023-10-13T10:19:47;0.40;;;0.40;;
18224;SDS011;9237;48.590;8.854;2023-10-13T10:22:25;0.40;;;0.40;;
18224;SDS011;9237;48.590;8.854;2023-10-13T10:24:56;0.40;;;0.40;;
18224;SDS011;9237;48.590;8.854;2023-10-13T10:27:27;0.40;;;0.40;;
18224;SDS011;9237;48.590;8.854;2023-10-13T10:29:55;0.40;;;0.40;;
18224;SDS011;9237;48.590;8.854;2023-10-13T10:32:31;0.40;;;0.40;;
18224;SDS011;9237;48.590;8.854;2023-10-13T10:35:02;0.43;;;0.43;;
18224;SDS011;9237;48.590;8.854;2023-10-13T10:37:34;0.40;;;0.40;;
18224;SDS011;9237;48.590;8.854;2023-10-13T10:40:06;0.40;;;0.40;;
18224;SDS011;9237;48.590;8.854;2023-10-13T10:42:35;0.40;;;0.40;;
18224;SDS011;9237;48.590;8.854;2023-10-13T10:45:08;0.40;;;0.40;;
18224;SDS011;9237;48.590;8.854;2023-10-13T10:47:37;0.40;;;0.40;;
18224;SDS011;9237;48.590;8.854;2023-10-13T10:50:04;0.40;;;0.40;;
18224;SDS011;9237;48.590;8.854;2023-10-13T10:52:44;0.40;;;0.40;;
18224;SDS011;9237;48.590;8.854;2023-10-13T10:55:11;0.40;;;0.40;;
18224;SDS011;9237;48.590;8.854;2023-10-13T10:57:45;0.40;;;0.40;;
18224;SDS011;9237;48.590;8.854;2023-10-13T11:00:23;0.40;;;0.40;;
18224;SDS011;9237;48.590;8.854;2023-10-13T11:03:01;0.40;;;0.40;;
18224;SDS011;9237;48.590;8.854;2023-10-13T11:05:29;0.40;;;0.40;;
18224;SDS011;9237;48.590;8.854;2023-10-13T11:07:58;0.40;;;0.40;;
18224;SDS011;9237;48.590;8.854;2023-10-13T11:10:25;0.40;;;0.40;;
18224;SDS011;9237;48.590;8.854;2023-10-13T11:12:54;0.40;;;0.40;;
18224;SDS011;9237;48.590;8.854;2023-10-13T11:15:22;0.40;;;0.40;;
18224;SDS011;9237;48.590;8.854;2023-10-13T11:17:57;0.50;;;0.50;;
18224;SDS011;9237;48.590;8.854;2023-10-13T11:20:24;0.40;;;0.40;;
18224;SDS011;9237;48.590;8.854;2023-10-13T11:22:58;0.40;;;0.40;;
18224;SDS011;9237;48.590;8.854;2023-10-13T11:25:30;0.40;;;0.40;;
18224;SDS011;9237;48.590;8.854;2023-10-13T11:28:10;0.40;;;0.40;;
18224;SDS011;9237;48.590;8.854;2023-10-13T11:30:44;0.47;;;0.47;;
18224;SDS011;9237;48.590;8.854;2023-10-13T11:33:14;0.40;;;0.40;;
18224;SDS011;9237;48.590;8.854;2023-10-13T11:35:44;0.40;;;0.40;;
18224;SDS011;9237;48.590;8.854;2023-10-13T11:38:23;0.40;;;0.40;;
18224;SDS011;9237;48.590;8.854;2023-10-13T11:40:52;0.40;;;0.40;;
18224;SDS011;9237;48.590;8.854;2023-10-13T11:43:35;0.40;;;0.40;;
18224;SDS011;9237;48.590;8.854;2023-10-13T11:46:18;0.40;;;0.40;;
18224;SDS011;9237;48.590;8.854;2023-10-13T11:48:59;0.40;;;0.40;;
18224;SDS011;9237;48.590;8.854;2023-10-13T11:51:31;0.40;;;0.40;;
18224;SDS011;9237;48.590;8.854;2023-10-13T11:53:58;0.40;;;0.40;;
18224;SDS011;9237;48.590;8.854;2023-10-13T11:56:25;0.40;;;0.40;;
18224;SDS011;9237;48.590;8.854;2023-10-13T11:58:53;0.40;;;0.40;;
18224;SDS011;9237;48.590;8.854;2023-10-13T12:01:26;0.40;;;0.40;;
18224;SDS011;9237;48.590;8.854;2023-10-13T12:04:13;0.40;;;0.40;;
18224;SDS011;9237;48.590;8.854;2023-10-13T12:06:57;0.40;;;0.40;;
18224;SDS011;9237;48.590;8.854;2023-10-13T12:09:39;0.40;;;0.40;;
18224;SDS011;9237;48.590;8.854;2023-10-13T12:12:17;0.40;;;0.40;;
18224;SDS011;9237;48.590;8.854;2023-10-13T12:14:45;0.40;;;0.40;;
18224;SDS011;9237;48.590;8.854;2023-10-13T12:17:20;0.40;;;0.40;;
18224;SDS011;9237;48.590;8.854;2023-10-13T12:19:51;0.40;;;0.40;;
18224;SDS011;9237;48.590;8.854;2023-10-13T12:22:18;0.40;;;0.40;;
18224;SDS011;9237;48.590;8.854;2023-10-13T12:24:52;0.40;;;0.40;;
18224;SDS011;9237;48.590;8.854;2023-10-13T12:27:19;0.40;;;0.40;;
18224;SDS011;9237;48.590;8.854;2023-10-13T12:29:50;0.40;;;0.40;;
18224;SDS011;9237;48.590;8.854;2023-10-13T12:32:18;0.40;;;0.40;;
18224;SDS011;9237;48.590;8.854;2023-10-13T12:34:47;0.40;;;0.40;;
18224;SDS011;9237;48.590;8.854;2023-10-13T12:37:26;0.40;;;0.40;;
18224;SDS011;9237;48.590;8.854;2023-10-13T12:40:15;0.40;;;0.40;;
18224;SDS011;9237;48.590;8.854;2023-10-13T12:43:00;0.40;;;0.40;;
18224;SDS011;9237;48.590;8.854;2023-10-13T12:45:46;0.40;;;0.40;;
18224;SDS011;9237;48.590;8.854;2023-10-13T12:48:31;0.40;;;0.40;;
18224;SDS011;9237;48.590;8.854;2023-10-13T12:51:15;0.40;;;0.40;;
18224;SDS011;9237;48.590;8.854;2023-10-13T12:54:05;0.32;;;0.32;;
18224;SDS011;9237;48.590;8.854;2023-10-13T12:56:39;0.40;;;0.40;;
18224;SDS011;9237;48.590;8.854;2023-10-13T12:59:07;0.30;;;0.30;;
18224;SDS011;9237;48.590;8.854;2023-10-13T13:01:36;0.40;;;0.40;;
18224;SDS011;9237;48.590;8.854;2023-10-13T13:04:07;0.40;;;0.40;;
18224;SDS011;9237;48.590;8.854;2023-10-13T13:06:38;0.40;;;0.40;;
18224;SDS011;9237;48.590;8.854;2023-10-13T13:09:06;0.35;;;0.35;;
18224;SDS011;9237;48.590;8.854;2023-10-13T13:11:34;0.40;;;0.40;;
18224;SDS011;9237;48.590;8.854;2023-10-13T13:14:04;0.40;;;0.40;;
18224;SDS011;9237;48.590;8.854;2023-10-13T13:16:33;0.40;;;0.40;;
18224;SDS011;9237;48.590;8.854;2023-10-13T13:19:04;0.40;;;0.40;;
18224;SDS011;9237;48.590;8.854;2023-10-13T13:21:35;0.40;;;0.40;;
18224;SDS011;9237;48.590;8.854;2023-10-13T13:24:02;0.38;;;0.38;;
18224;SDS011;9237;48.590;8.854;2023-10-13T13:26:30;0.40;;;0.40;;
18224;SDS011;9237;48.590;8.854;2023-10-13T13:28:57;0.40;;;0.40;;
18224;SDS011;9237;48.590;8.854;2023-10-13T13:31:24;0.40;;;0.40;;
18224;SDS011;9237;48.590;8.854;2023-10-13T13:33:55;0.30;;;0.30;;
18224;SDS011;9237;48.590;8.854;2023-10-13T13:36:22;0.30;;;0.30;;
18224;SDS011;9237;48.590;8.854;2023-10-13T13:38:49;0.30;;;0.30;;
18224;SDS011;9237;48.590;8.854;2023-10-13T13:41:16;0.30;;;0.30;;
18224;SDS011;9237;48.590;8.854;2023-10-13T13:43:44;0.30;;;0.30;;
18224;SDS011;9237;48.590;8.854;2023-10-13T13:46:20;0.35;;;0.35;;
18224;SDS011;9237;48.590;8.854;2023-10-13T13:48:50;0.30;;;0.30;;
18224;SDS011;9237;48.590;8.854;2023-10-13T13:51:24;0.30;;;0.30;;
18224;SDS011;9237;48.590;8.854;2023-10-13T13:53:53;0.30;;;0.30;;
18224;SDS011;9237;48.590;8.854;2023-10-13T13:56:20;0.30;;;0.30;;
18224;SDS011;9237;48.590;8.854;2023-10-13T13:58:50;0.20;;;0.20;;
18224;SDS011;9237;48.590;8.854;2023-10-13T14:01:18;0.30;;;0.30;;
18224;SDS011;9237;48.590;8.854;2023-10-13T14:03:47;0.40;;;0.40;;
18224;SDS011;9237;48.590;8.854;2023-10-13T14:06:16;0.30;;;0.30;;
18224;SDS011;9237;48.590;8.854;2023-10-13T14:08:47;0.30;;;0.30;;
18224;SDS011;9237;48.590;8.854;2023-10-13T14:11:17;0.30;;;0.30;;
18224;SDS011;9237;48.590;8.854;2023-10-13T14:14:01;0.30;;;0.30;;
18224;SDS011;9237;48.590;8.854;2023-10-13T14:16:29;0.30;;;0.30;;
18224;SDS011;9237;48.590;8.854;2023-10-13T14:18:58;0.30;;;0.30;;
18224;SDS011;9237;48.590;8.854;2023-10-13T14:21:26;0.30;;;0.30;;
18224;SDS011;9237;48.590;8.854;2023-10-13T14:23:54;0.30;;;0.30;;
18224;SDS011;9237;48.590;8.854;2023-10-13T14:26:21;0.30;;;0.30;;
18224;SDS011;9237;48.590;8.854;2023-10-13T14:28:50;0.30;;;0.30;;
18224;SDS011;9237;48.590;8.854;2023-10-13T14:31:25;0.40;;;0.40;;
18224;SDS011;9237;48.590;8.854;2023-10-13T14:33:52;0.40;;;0.40;;
18224;SDS011;9237;48.590;8.854;2023-10-13T14:36:19;0.30;;;0.30;;
18224;SDS011;9237;48.590;8.854;2023-10-13T14:38:46;0.30;;;0.30;;
18224;SDS011;9237;48.590;8.854;2023-10-13T14:41:17;0.30;;;0.30;;
18224;SDS011;9237;48.590;8.854;2023-10-13T14:43:45;0.30;;;0.30;;
18224;SDS011;9237;48.590;8.854;2023-10-13T14:46:14;0.30;;;0.30;;
18224;SDS011;9237;48.590;8.854;2023-10-13T14:48:41;0.30;;;0.30;;
18224;SDS011;9237;48.590;8.854;2023-10-13T14:51:11;0.30;;;0.30;;
18224;SDS011;9237;48.590;8.854;2023-10-13T14:53:39;0.35;;;0.35;;
18224;SDS011;9237;48.590;8.854;2023-10-13T14:56:09;0.30;;;0.30;;
18224;SDS011;9237;48.590;8.854;2023-10-13T14:58:37;0.30;;;0.30;;
18224;SDS011;9237;48.590;8.854;2023-10-13T15:01:11;0.30;;;0.30;;
18224;SDS011;9237;48.590;8.854;2023-10-13T15:03:40;0.30;;;0.30;;
18224;SDS011;9237;48.590;8.854;2023-10-13T15:06:07;0.30;;;0.30;;
18224;SDS011;9237;48.590;8.854;2023-10-13T15:08:42;0.30;;;0.30;;
18224;SDS011;9237;48.590;8.854;2023-10-13T15:11:11;0.40;;;0.40;;
18224;SDS011;9237;48.590;8.854;2023-10-13T15:13:40;0.30;;;0.30;;
18224;SDS011;9237;48.590;8.854;2023-10-13T15:16:13;0.30;;;0.30;;
18224;SDS011;9237;48.590;8.854;2023-10-13T15:18:42;0.40;;;0.40;;
18224;SDS011;9237;48.590;8.854;2023-10-13T15:21:09;0.40;;;0.40;;
18224;SDS011;9237;48.590;8.854;2023-10-13T15:23:37;0.40;;;0.40;;
18224;SDS011;9237;48.590;8.854;2023-10-13T15:26:07;0.30;;;0.30;;
18224;SDS011;9237;48.590;8.854;2023-10-13T15:28:35;0.40;;;0.40;;
18224;SDS011;9237;48.590;8.854;2023-10-13T15:31:11;0.40;;;0.40;;
18224;SDS011;9237;48.590;8.854;2023-10-13T15:33:49;0.40;;;0.40;;
18224;SDS011;9237;48.590;8.854;2023-10-13T15:36:19;0.40;;;0.40;;
18224;SDS011;9237;48.590;8.854;2023-10-13T15:38:46;0.40;;;0.40;;
18224;SDS011;9237;48.590;8.854;2023-10-13T15:41:20;0.40;;;0.40;;